sensor_id;sensor_type;location;lat;lon;timestamp;P1;durP1;ratioP1;P2;durP2;ratioP2
53710;SDS011;39605;52.704;6.752;2023-05-06T00:00:10;5.43;;;4.93;;
53710;SDS011;39605;52.704;6.752;2023-05-06T00:02:36;3.70;;;3.50;;
53710;SDS011;39605;52.704;6.752;2023-05-06T00:05:02;5.00;;;4.60;;
53710;SDS011;39605;52.704;6.752;2023-05-06T00:07:29;6.65;;;3.95;;
53710;SDS011;39605;52.704;6.752;2023-05-06T00:09:55;4.00;;;3.60;;
53710;SDS011;39605;52.704;6.752;2023-05-06T00:12:21;5.15;;;4.85;;
53710;SDS011;39605;52.704;6.752;2023-05-06T00:14:47;4.97;;;4.68;;
53710;SDS011;39605;52.704;6.752;2023-05-06T00:17:13;4.93;;;4.70;;
53710;SDS011;39605;52.704;6.752;2023-05-06T00:19:39;4.70;;;4.45;;
53710;SDS011;39605;52.704;6.752;2023-05-06T00:22:06;6.38;;;5.78;;
53710;SDS011;39605;52.704;6.752;2023-05-06T00:24:32;4.55;;;4.35;;
53710;SDS011;39605;52.704;6.752;2023-05-06T00:26:58;5.72;;;5.15;;
53710;SDS011;39605;52.704;6.752;2023-05-06T00:29:25;4.90;;;4.47;;
53710;SDS011;39605;52.704;6.752;2023-05-06T00:31:51;5.45;;;5.15;;
53710;SDS011;39605;52.704;6.752;2023-05-06T00:34:17;4.53;;;4.30;;
53710;SDS011;39605;52.704;6.752;2023-05-06T00:36:44;4.63;;;4.22;;
53710;SDS011;39605;52.704;6.752;2023-05-06T00:39:10;5.15;;;4.80;;
53710;SDS011;39605;52.704;6.752;2023-05-06T00:41:36;5.03;;;4.60;;
53710;SDS011;39605;52.704;6.752;2023-05-06T00:44:02;5.93;;;5.45;;
53710;SDS011;39605;52.704;6.752;2023-05-06T00:46:28;5.10;;;4.68;;
53710;SDS011;39605;52.704;6.752;2023-05-06T00:48:54;5.65;;;5.15;;
53710;SDS011;39605;52.704;6.752;2023-05-06T00:51:20;5.47;;;5.07;;
53710;SDS011;39605;52.704;6.752;2023-05-06T00:53:47;6.40;;;5.95;;
53710;SDS011;39605;52.704;6.752;2023-05-06T00:56:13;4.55;;;4.15;;
53710;SDS011;39605;52.704;6.752;2023-05-06T00:58:39;4.47;;;4.00;;
53710;SDS011;39605;52.704;6.752;2023-05-06T01:01:05;6.53;;;4.55;;
53710;SDS011;39605;52.704;6.752;2023-05-06T01:03:32;5.13;;;4.72;;
53710;SDS011;39605;52.704;6.752;2023-05-06T01:08:45;5.43;;;5.03;;
53710;SDS011;39605;52.704;6.752;2023-05-06T01:11:13;4.55;;;4.18;;
53710;SDS011;39605;52.704;6.752;2023-05-06T01:13:44;4.53;;;4.13;;
53710;SDS011;39605;52.704;6.752;2023-05-06T01:16:12;3.88;;;3.67;;
53710;SDS011;39605;52.704;6.752;2023-05-06T01:18:39;5.38;;;4.85;;
53710;SDS011;39605;52.704;6.752;2023-05-06T01:21:07;5.32;;;4.82;;
53710;SDS011;39605;52.704;6.752;2023-05-06T01:23:50;5.47;;;5.05;;
53710;SDS011;39605;52.704;6.752;2023-05-06T01:26:16;5.28;;;4.95;;
53710;SDS011;39605;52.704;6.752;2023-05-06T01:28:42;4.80;;;4.25;;
53710;SDS011;39605;52.704;6.752;2023-05-06T01:31:09;4.80;;;4.55;;
53710;SDS011;39605;52.704;6.752;2023-05-06T01:33:58;4.80;;;4.38;;
53710;SDS011;39605;52.704;6.752;2023-05-06T01:36:35;3.65;;;3.45;;
53710;SDS011;39605;52.704;6.752;2023-05-06T01:39:17;2.67;;;2.47;;
53710;SDS011;39605;52.704;6.752;2023-05-06T01:41:43;3.08;;;2.88;;
53710;SDS011;39605;52.704;6.752;2023-05-06T01:44:10;3.28;;;2.40;;
53710;SDS011;39605;52.704;6.752;2023-05-06T01:46:37;2.50;;;2.40;;
53710;SDS011;39605;52.704;6.752;2023-05-06T01:49:04;2.80;;;2.55;;
53710;SDS011;39605;52.704;6.752;2023-05-06T01:51:32;2.67;;;2.10;;
53710;SDS011;39605;52.704;6.752;2023-05-06T01:53:58;3.97;;;3.42;;
53710;SDS011;39605;52.704;6.752;2023-05-06T01:56:25;3.30;;;2.35;;
53710;SDS011;39605;52.704;6.752;2023-05-06T01:58:53;2.05;;;1.95;;
53710;SDS011;39605;52.704;6.752;2023-05-06T02:01:23;2.40;;;2.30;;
53710;SDS011;39605;52.704;6.752;2023-05-06T02:03:50;3.92;;;2.95;;
53710;SDS011;39605;52.704;6.752;2023-05-06T02:06:16;2.90;;;2.70;;
53710;SDS011;39605;52.704;6.752;2023-05-06T02:08:42;3.20;;;2.80;;
53710;SDS011;39605;52.704;6.752;2023-05-06T02:11:08;2.65;;;2.45;;
53710;SDS011;39605;52.704;6.752;2023-05-06T02:13:34;5.53;;;3.15;;
53710;SDS011;39605;52.704;6.752;2023-05-06T02:16:00;3.35;;;3.20;;
53710;SDS011;39605;52.704;6.752;2023-05-06T02:18:27;2.58;;;2.47;;
53710;SDS011;39605;52.704;6.752;2023-05-06T02:20:53;2.83;;;2.63;;
53710;SDS011;39605;52.704;6.752;2023-05-06T02:23:19;3.17;;;2.97;;
53710;SDS011;39605;52.704;6.752;2023-05-06T02:25:45;3.15;;;2.95;;
53710;SDS011;39605;52.704;6.752;2023-05-06T02:28:11;3.53;;;3.33;;
53710;SDS011;39605;52.704;6.752;2023-05-06T02:30:37;6.97;;;6.38;;
53710;SDS011;39605;52.704;6.752;2023-05-06T02:33:03;5.68;;;5.18;;
53710;SDS011;39605;52.704;6.752;2023-05-06T02:35:29;5.88;;;5.47;;
53710;SDS011;39605;52.704;6.752;2023-05-06T02:37:56;4.30;;;3.88;;
53710;SDS011;39605;52.704;6.752;2023-05-06T02:40:22;4.95;;;4.57;;
53710;SDS011;39605;52.704;6.752;2023-05-06T02:42:48;4.97;;;4.60;;
53710;SDS011;39605;52.704;6.752;2023-05-06T02:45:14;3.88;;;3.78;;
53710;SDS011;39605;52.704;6.752;2023-05-06T02:47:40;4.47;;;4.25;;
53710;SDS011;39605;52.704;6.752;2023-05-06T02:50:06;5.47;;;3.95;;
53710;SDS011;39605;52.704;6.752;2023-05-06T02:52:32;4.20;;;3.97;;
53710;SDS011;39605;52.704;6.752;2023-05-06T02:54:59;4.50;;;4.30;;
53710;SDS011;39605;52.704;6.752;2023-05-06T02:57:25;5.40;;;4.75;;
53710;SDS011;39605;52.704;6.752;2023-05-06T02:59:51;15.02;;;11.00;;
53710;SDS011;39605;52.704;6.752;2023-05-06T03:02:17;7.13;;;6.63;;
53710;SDS011;39605;52.704;6.752;2023-05-06T03:04:43;10.15;;;9.30;;
53710;SDS011;39605;52.704;6.752;2023-05-06T03:07:09;8.68;;;7.97;;
53710;SDS011;39605;52.704;6.752;2023-05-06T03:09:36;8.95;;;8.05;;
53710;SDS011;39605;52.704;6.752;2023-05-06T03:12:03;8.77;;;8.20;;
53710;SDS011;39605;52.704;6.752;2023-05-06T03:14:30;8.77;;;8.07;;
53710;SDS011;39605;52.704;6.752;2023-05-06T03:16:56;8.35;;;7.65;;
53710;SDS011;39605;52.704;6.752;2023-05-06T03:19:22;6.30;;;5.82;;
53710;SDS011;39605;52.704;6.752;2023-05-06T03:21:48;7.10;;;6.55;;
53710;SDS011;39605;52.704;6.752;2023-05-06T03:24:14;7.70;;;7.07;;
53710;SDS011;39605;52.704;6.752;2023-05-06T03:26:40;6.57;;;6.15;;
53710;SDS011;39605;52.704;6.752;2023-05-06T03:29:06;6.07;;;5.68;;
53710;SDS011;39605;52.704;6.752;2023-05-06T03:31:32;7.30;;;6.68;;
53710;SDS011;39605;52.704;6.752;2023-05-06T03:33:59;7.63;;;6.90;;
53710;SDS011;39605;52.704;6.752;2023-05-06T03:36:25;5.72;;;5.30;;
53710;SDS011;39605;52.704;6.752;2023-05-06T03:38:52;5.38;;;4.97;;
53710;SDS011;39605;52.704;6.752;2023-05-06T03:41:18;5.25;;;4.95;;
53710;SDS011;39605;52.704;6.752;2023-05-06T03:43:45;6.75;;;6.28;;
53710;SDS011;39605;52.704;6.752;2023-05-06T03:46:11;5.20;;;4.95;;
53710;SDS011;39605;52.704;6.752;2023-05-06T03:48:37;5.80;;;5.50;;
53710;SDS011;39605;52.704;6.752;2023-05-06T03:51:03;5.80;;;5.50;;
53710;SDS011;39605;52.704;6.752;2023-05-06T03:53:30;6.88;;;6.45;;
53710;SDS011;39605;52.704;6.752;2023-05-06T03:55:56;6.78;;;6.35;;
53710;SDS011;39605;52.704;6.752;2023-05-06T03:58:22;5.50;;;5.18;;
53710;SDS011;39605;52.704;6.752;2023-05-06T04:00:49;9.82;;;7.85;;
53710;SDS011;39605;52.704;6.752;2023-05-06T04:03:15;9.48;;;8.57;;
53710;SDS011;39605;52.704;6.752;2023-05-06T04:05:41;18.45;;;13.00;;
53710;SDS011;39605;52.704;6.752;2023-05-06T04:08:07;8.65;;;7.85;;
53710;SDS011;39605;52.704;6.752;2023-05-06T04:10:37;9.63;;;8.73;;
53710;SDS011;39605;52.704;6.752;2023-05-06T04:13:03;10.30;;;9.40;;
53710;SDS011;39605;52.704;6.752;2023-05-06T04:15:29;11.18;;;9.52;;
53710;SDS011;39605;52.704;6.752;2023-05-06T04:17:58;9.15;;;8.27;;
53710;SDS011;39605;52.704;6.752;2023-05-06T04:20:24;10.88;;;9.05;;
53710;SDS011;39605;52.704;6.752;2023-05-06T04:22:50;10.45;;;9.45;;
53710;SDS011;39605;52.704;6.752;2023-05-06T04:25:16;11.70;;;10.60;;
53710;SDS011;39605;52.704;6.752;2023-05-06T04:27:43;11.85;;;10.25;;
53710;SDS011;39605;52.704;6.752;2023-05-06T04:30:10;12.68;;;11.20;;
53710;SDS011;39605;52.704;6.752;2023-05-06T04:32:36;15.65;;;11.10;;
53710;SDS011;39605;52.704;6.752;2023-05-06T04:35:02;14.65;;;10.43;;
53710;SDS011;39605;52.704;6.752;2023-05-06T04:37:29;16.25;;;11.45;;
53710;SDS011;39605;52.704;6.752;2023-05-06T04:39:55;22.17;;;11.70;;
53710;SDS011;39605;52.704;6.752;2023-05-06T04:42:22;13.40;;;10.85;;
53710;SDS011;39605;52.704;6.752;2023-05-06T04:44:48;28.30;;;13.77;;
53710;SDS011;39605;52.704;6.752;2023-05-06T04:47:14;138.93;;;38.35;;
53710;SDS011;39605;52.704;6.752;2023-05-06T04:49:41;13.25;;;11.90;;
53710;SDS011;39605;52.704;6.752;2023-05-06T04:52:07;45.85;;;20.70;;
53710;SDS011;39605;52.704;6.752;2023-05-06T04:54:33;12.82;;;11.50;;
53710;SDS011;39605;52.704;6.752;2023-05-06T04:56:59;21.27;;;13.55;;
53710;SDS011;39605;52.704;6.752;2023-05-06T04:59:26;33.65;;;14.52;;
53710;SDS011;39605;52.704;6.752;2023-05-06T05:01:52;12.48;;;11.57;;
53710;SDS011;39605;52.704;6.752;2023-05-06T05:04:18;11.43;;;10.52;;
53710;SDS011;39605;52.704;6.752;2023-05-06T05:06:44;9.95;;;9.25;;
53710;SDS011;39605;52.704;6.752;2023-05-06T05:09:10;12.07;;;11.07;;
53710;SDS011;39605;52.704;6.752;2023-05-06T05:11:36;11.57;;;10.57;;
53710;SDS011;39605;52.704;6.752;2023-05-06T05:14:02;12.05;;;10.85;;
53710;SDS011;39605;52.704;6.752;2023-05-06T05:16:28;24.23;;;13.55;;
53710;SDS011;39605;52.704;6.752;2023-05-06T05:18:55;74.35;;;18.50;;
53710;SDS011;39605;52.704;6.752;2023-05-06T05:21:21;23.55;;;12.75;;
53710;SDS011;39605;52.704;6.752;2023-05-06T05:23:47;46.15;;;13.50;;
53710;SDS011;39605;52.704;6.752;2023-05-06T05:26:13;26.65;;;13.00;;
53710;SDS011;39605;52.704;6.752;2023-05-06T05:28:39;92.25;;;16.30;;
53710;SDS011;39605;52.704;6.752;2023-05-06T05:31:05;23.73;;;10.02;;
53710;SDS011;39605;52.704;6.752;2023-05-06T05:33:31;16.70;;;12.02;;
53710;SDS011;39605;52.704;6.752;2023-05-06T05:35:57;11.75;;;10.55;;
53710;SDS011;39605;52.704;6.752;2023-05-06T05:38:23;13.90;;;11.90;;
53710;SDS011;39605;52.704;6.752;2023-05-06T05:40:49;29.92;;;11.80;;
53710;SDS011;39605;52.704;6.752;2023-05-06T05:43:16;11.77;;;10.77;;
53710;SDS011;39605;52.704;6.752;2023-05-06T05:45:43;21.50;;;11.75;;
53710;SDS011;39605;52.704;6.752;2023-05-06T05:48:09;47.63;;;15.30;;
53710;SDS011;39605;52.704;6.752;2023-05-06T05:50:35;43.65;;;12.52;;
53710;SDS011;39605;52.704;6.752;2023-05-06T05:53:01;17.45;;;12.85;;
53710;SDS011;39605;52.704;6.752;2023-05-06T05:55:27;98.90;;;18.45;;
53710;SDS011;39605;52.704;6.752;2023-05-06T05:57:54;15.95;;;14.18;;
53710;SDS011;39605;52.704;6.752;2023-05-06T06:00:20;14.82;;;13.40;;
53710;SDS011;39605;52.704;6.752;2023-05-06T06:02:46;18.55;;;13.40;;
53710;SDS011;39605;52.704;6.752;2023-05-06T06:05:12;17.80;;;16.02;;
53710;SDS011;39605;52.704;6.752;2023-05-06T06:07:39;15.80;;;14.32;;
53710;SDS011;39605;52.704;6.752;2023-05-06T06:10:05;38.42;;;23.30;;
53710;SDS011;39605;52.704;6.752;2023-05-06T06:12:31;22.10;;;19.85;;
53710;SDS011;39605;52.704;6.752;2023-05-06T06:14:57;21.38;;;19.13;;
53710;SDS011;39605;52.704;6.752;2023-05-06T06:17:23;26.98;;;22.67;;
53710;SDS011;39605;52.704;6.752;2023-05-06T06:19:49;44.38;;;28.35;;
53710;SDS011;39605;52.704;6.752;2023-05-06T06:22:15;23.02;;;20.80;;
53710;SDS011;39605;52.704;6.752;2023-05-06T06:24:42;29.13;;;26.00;;
53710;SDS011;39605;52.704;6.752;2023-05-06T06:27:08;25.08;;;22.48;;
53710;SDS011;39605;52.704;6.752;2023-05-06T06:29:34;27.08;;;24.23;;
53710;SDS011;39605;52.704;6.752;2023-05-06T06:32:01;28.80;;;25.20;;
53710;SDS011;39605;52.704;6.752;2023-05-06T06:34:27;24.92;;;22.38;;
53710;SDS011;39605;52.704;6.752;2023-05-06T06:36:53;24.75;;;22.15;;
53710;SDS011;39605;52.704;6.752;2023-05-06T06:39:20;25.13;;;22.27;;
53710;SDS011;39605;52.704;6.752;2023-05-06T06:41:46;28.25;;;25.00;;
53710;SDS011;39605;52.704;6.752;2023-05-06T06:44:12;25.13;;;22.52;;
53710;SDS011;39605;52.704;6.752;2023-05-06T06:46:38;27.05;;;23.50;;
53710;SDS011;39605;52.704;6.752;2023-05-06T06:49:04;24.83;;;22.45;;
53710;SDS011;39605;52.704;6.752;2023-05-06T06:51:30;26.70;;;23.92;;
53710;SDS011;39605;52.704;6.752;2023-05-06T06:53:56;25.88;;;23.40;;
53710;SDS011;39605;52.704;6.752;2023-05-06T06:56:22;26.95;;;24.15;;
53710;SDS011;39605;52.704;6.752;2023-05-06T06:58:48;25.33;;;22.73;;
53710;SDS011;39605;52.704;6.752;2023-05-06T07:01:14;29.58;;;26.42;;
53710;SDS011;39605;52.704;6.752;2023-05-06T07:03:40;28.20;;;25.17;;
53710;SDS011;39605;52.704;6.752;2023-05-06T07:06:07;28.80;;;25.83;;
53710;SDS011;39605;52.704;6.752;2023-05-06T07:08:33;28.35;;;25.35;;
53710;SDS011;39605;52.704;6.752;2023-05-06T07:10:59;27.95;;;25.10;;
53710;SDS011;39605;52.704;6.752;2023-05-06T07:13:25;30.05;;;26.02;;
53710;SDS011;39605;52.704;6.752;2023-05-06T07:15:51;28.52;;;25.40;;
53710;SDS011;39605;52.704;6.752;2023-05-06T07:18:17;29.30;;;26.10;;
53710;SDS011;39605;52.704;6.752;2023-05-06T07:20:43;29.27;;;26.10;;
53710;SDS011;39605;52.704;6.752;2023-05-06T07:23:09;30.30;;;27.10;;
53710;SDS011;39605;52.704;6.752;2023-05-06T07:25:35;30.63;;;27.27;;
53710;SDS011;39605;52.704;6.752;2023-05-06T07:28:01;31.33;;;27.75;;
53710;SDS011;39605;52.704;6.752;2023-05-06T07:30:28;31.42;;;27.67;;
53710;SDS011;39605;52.704;6.752;2023-05-06T07:32:54;29.63;;;26.50;;
53710;SDS011;39605;52.704;6.752;2023-05-06T07:35:20;31.13;;;28.00;;
53710;SDS011;39605;52.704;6.752;2023-05-06T07:37:46;28.52;;;25.63;;
53710;SDS011;39605;52.704;6.752;2023-05-06T07:40:12;27.45;;;24.58;;
53710;SDS011;39605;52.704;6.752;2023-05-06T07:42:39;27.75;;;24.75;;
53710;SDS011;39605;52.704;6.752;2023-05-06T07:45:05;29.20;;;26.08;;
53710;SDS011;39605;52.704;6.752;2023-05-06T07:47:31;27.75;;;24.90;;
53710;SDS011;39605;52.704;6.752;2023-05-06T07:49:57;28.15;;;25.15;;
53710;SDS011;39605;52.704;6.752;2023-05-06T07:52:24;26.55;;;23.88;;
53710;SDS011;39605;52.704;6.752;2023-05-06T07:54:50;26.00;;;23.23;;
53710;SDS011;39605;52.704;6.752;2023-05-06T07:57:16;25.65;;;22.92;;
53710;SDS011;39605;52.704;6.752;2023-05-06T07:59:42;22.95;;;20.65;;
53710;SDS011;39605;52.704;6.752;2023-05-06T08:02:09;26.20;;;22.33;;
53710;SDS011;39605;52.704;6.752;2023-05-06T08:04:35;26.70;;;23.88;;
53710;SDS011;39605;52.704;6.752;2023-05-06T08:07:01;26.65;;;23.88;;
53710;SDS011;39605;52.704;6.752;2023-05-06T08:09:27;25.75;;;22.67;;
53710;SDS011;39605;52.704;6.752;2023-05-06T08:11:53;28.05;;;25.10;;
53710;SDS011;39605;52.704;6.752;2023-05-06T08:14:19;28.58;;;25.00;;
53710;SDS011;39605;52.704;6.752;2023-05-06T08:16:45;30.45;;;27.15;;
53710;SDS011;39605;52.704;6.752;2023-05-06T08:19:12;31.52;;;28.17;;
53710;SDS011;39605;52.704;6.752;2023-05-06T08:21:38;32.97;;;27.77;;
53710;SDS011;39605;52.704;6.752;2023-05-06T08:24:04;30.30;;;27.02;;
53710;SDS011;39605;52.704;6.752;2023-05-06T08:26:30;30.13;;;26.23;;
53710;SDS011;39605;52.704;6.752;2023-05-06T08:28:56;29.42;;;26.30;;
53710;SDS011;39605;52.704;6.752;2023-05-06T08:31:23;27.77;;;24.80;;
53710;SDS011;39605;52.704;6.752;2023-05-06T08:33:49;25.30;;;21.77;;
53710;SDS011;39605;52.704;6.752;2023-05-06T08:36:15;26.83;;;21.65;;
53710;SDS011;39605;52.704;6.752;2023-05-06T08:38:43;21.13;;;19.00;;
53710;SDS011;39605;52.704;6.752;2023-05-06T08:41:16;17.50;;;15.80;;
53710;SDS011;39605;52.704;6.752;2023-05-06T08:43:42;15.45;;;13.95;;
53710;SDS011;39605;52.704;6.752;2023-05-06T08:46:11;11.00;;;10.05;;
53710;SDS011;39605;52.704;6.752;2023-05-06T08:48:37;7.82;;;7.15;;
53710;SDS011;39605;52.704;6.752;2023-05-06T08:51:03;7.50;;;7.00;;
53710;SDS011;39605;52.704;6.752;2023-05-06T08:53:30;9.48;;;8.68;;
53710;SDS011;39605;52.704;6.752;2023-05-06T08:56:00;11.40;;;10.38;;
53710;SDS011;39605;52.704;6.752;2023-05-06T08:58:28;12.32;;;11.27;;
53710;SDS011;39605;52.704;6.752;2023-05-06T09:00:55;11.00;;;10.00;;
53710;SDS011;39605;52.704;6.752;2023-05-06T09:03:21;8.07;;;7.43;;
53710;SDS011;39605;52.704;6.752;2023-05-06T09:05:47;9.95;;;8.95;;
53710;SDS011;39605;52.704;6.752;2023-05-06T09:08:13;10.38;;;9.38;;
53710;SDS011;39605;52.704;6.752;2023-05-06T09:10:43;13.73;;;12.43;;
53710;SDS011;39605;52.704;6.752;2023-05-06T09:13:13;14.85;;;13.30;;
53710;SDS011;39605;52.704;6.752;2023-05-06T09:15:41;15.63;;;14.23;;
53710;SDS011;39605;52.704;6.752;2023-05-06T09:18:07;13.60;;;12.30;;
53710;SDS011;39605;52.704;6.752;2023-05-06T09:20:34;13.07;;;11.98;;
53710;SDS011;39605;52.704;6.752;2023-05-06T09:23:01;15.57;;;14.10;;
53710;SDS011;39605;52.704;6.752;2023-05-06T09:25:27;16.77;;;14.15;;
53710;SDS011;39605;52.704;6.752;2023-05-06T09:28:04;24.73;;;13.20;;
53710;SDS011;39605;52.704;6.752;2023-05-06T09:30:30;13.75;;;12.45;;
53710;SDS011;39605;52.704;6.752;2023-05-06T09:32:56;14.93;;;13.63;;
53710;SDS011;39605;52.704;6.752;2023-05-06T09:35:25;30.52;;;12.60;;
53710;SDS011;39605;52.704;6.752;2023-05-06T09:37:52;10.73;;;9.82;;
53710;SDS011;39605;52.704;6.752;2023-05-06T09:40:18;12.63;;;11.52;;
53710;SDS011;39605;52.704;6.752;2023-05-06T09:42:44;10.70;;;9.88;;
53710;SDS011;39605;52.704;6.752;2023-05-06T09:45:14;11.50;;;10.38;;
53710;SDS011;39605;52.704;6.752;2023-05-06T09:47:41;11.38;;;10.30;;
53710;SDS011;39605;52.704;6.752;2023-05-06T09:50:07;10.65;;;9.80;;
53710;SDS011;39605;52.704;6.752;2023-05-06T09:52:33;11.15;;;10.23;;
53710;SDS011;39605;52.704;6.752;2023-05-06T09:54:59;10.98;;;10.07;;
53710;SDS011;39605;52.704;6.752;2023-05-06T09:57:26;9.32;;;8.13;;
53710;SDS011;39605;52.704;6.752;2023-05-06T09:59:55;5.78;;;5.45;;
53710;SDS011;39605;52.704;6.752;2023-05-06T10:02:22;5.80;;;5.40;;
53710;SDS011;39605;52.704;6.752;2023-05-06T10:04:48;5.10;;;4.70;;
53710;SDS011;39605;52.704;6.752;2023-05-06T10:07:15;6.63;;;6.13;;
53710;SDS011;39605;52.704;6.752;2023-05-06T10:09:42;7.18;;;6.47;;
53710;SDS011;39605;52.704;6.752;2023-05-06T10:12:08;6.72;;;6.07;;
53710;SDS011;39605;52.704;6.752;2023-05-06T10:14:37;6.45;;;5.93;;
53710;SDS011;39605;52.704;6.752;2023-05-06T10:17:07;6.63;;;6.13;;
53710;SDS011;39605;52.704;6.752;2023-05-06T10:19:34;7.35;;;6.75;;
53710;SDS011;39605;52.704;6.752;2023-05-06T10:22:02;8.25;;;7.65;;
53710;SDS011;39605;52.704;6.752;2023-05-06T10:24:34;7.72;;;7.15;;
53710;SDS011;39605;52.704;6.752;2023-05-06T10:27:01;8.57;;;7.80;;
53710;SDS011;39605;52.704;6.752;2023-05-06T10:29:30;8.32;;;7.70;;
53710;SDS011;39605;52.704;6.752;2023-05-06T10:31:56;8.70;;;8.07;;
53710;SDS011;39605;52.704;6.752;2023-05-06T10:34:24;8.65;;;7.97;;
53710;SDS011;39605;52.704;6.752;2023-05-06T10:36:51;8.77;;;8.07;;
53710;SDS011;39605;52.704;6.752;2023-05-06T10:39:20;9.05;;;8.35;;
53710;SDS011;39605;52.704;6.752;2023-05-06T10:41:46;10.85;;;9.70;;
53710;SDS011;39605;52.704;6.752;2023-05-06T10:44:13;9.68;;;8.77;;
53710;SDS011;39605;52.704;6.752;2023-05-06T10:46:55;10.45;;;9.65;;
53710;SDS011;39605;52.704;6.752;2023-05-06T10:49:22;10.77;;;9.88;;
53710;SDS011;39605;52.704;6.752;2023-05-06T10:51:49;11.00;;;10.18;;
53710;SDS011;39605;52.704;6.752;2023-05-06T10:54:36;10.60;;;9.70;;
53710;SDS011;39605;52.704;6.752;2023-05-06T10:57:11;11.35;;;10.25;;
53710;SDS011;39605;52.704;6.752;2023-05-06T10:59:37;11.05;;;10.05;;
53710;SDS011;39605;52.704;6.752;2023-05-06T11:02:10;11.45;;;10.45;;
53710;SDS011;39605;52.704;6.752;2023-05-06T11:04:36;10.68;;;9.70;;
53710;SDS011;39605;52.704;6.752;2023-05-06T11:07:09;10.65;;;9.75;;
53710;SDS011;39605;52.704;6.752;2023-05-06T11:12:20;11.38;;;10.48;;
53710;SDS011;39605;52.704;6.752;2023-05-06T11:14:46;10.43;;;9.63;;
53710;SDS011;39605;52.704;6.752;2023-05-06T11:17:30;11.27;;;10.38;;
53710;SDS011;39605;52.704;6.752;2023-05-06T11:22:56;11.70;;;10.70;;
53710;SDS011;39605;52.704;6.752;2023-05-06T11:25:41;12.75;;;11.45;;
53710;SDS011;39605;52.704;6.752;2023-05-06T11:28:09;11.45;;;10.27;;
53710;SDS011;39605;52.704;6.752;2023-05-06T11:30:36;12.30;;;11.23;;
53710;SDS011;39605;52.704;6.752;2023-05-06T11:33:03;12.15;;;11.25;;
53710;SDS011;39605;52.704;6.752;2023-05-06T11:35:36;14.90;;;13.50;;
53710;SDS011;39605;52.704;6.752;2023-05-06T11:38:02;13.50;;;12.50;;
53710;SDS011;39605;52.704;6.752;2023-05-06T11:40:29;14.00;;;12.73;;
53710;SDS011;39605;52.704;6.752;2023-05-06T11:43:07;12.13;;;11.02;;
53710;SDS011;39605;52.704;6.752;2023-05-06T11:45:44;10.80;;;10.10;;
53710;SDS011;39605;52.704;6.752;2023-05-06T11:48:13;11.68;;;10.77;;
53710;SDS011;39605;52.704;6.752;2023-05-06T11:50:43;11.52;;;10.48;;
53710;SDS011;39605;52.704;6.752;2023-05-06T11:53:11;12.35;;;11.35;;
53710;SDS011;39605;52.704;6.752;2023-05-06T11:55:37;11.95;;;10.95;;
53710;SDS011;39605;52.704;6.752;2023-05-06T11:58:03;11.90;;;10.90;;
53710;SDS011;39605;52.704;6.752;2023-05-06T12:00:29;11.45;;;10.48;;
53710;SDS011;39605;52.704;6.752;2023-05-06T12:02:55;11.30;;;10.30;;
53710;SDS011;39605;52.704;6.752;2023-05-06T12:05:22;11.10;;;10.20;;
53710;SDS011;39605;52.704;6.752;2023-05-06T12:07:48;10.07;;;9.23;;
53710;SDS011;39605;52.704;6.752;2023-05-06T12:10:15;11.15;;;10.40;;
53710;SDS011;39605;52.704;6.752;2023-05-06T12:12:41;10.95;;;9.85;;
53710;SDS011;39605;52.704;6.752;2023-05-06T12:15:08;10.55;;;9.85;;
53710;SDS011;39605;52.704;6.752;2023-05-06T12:17:34;11.10;;;10.18;;
53710;SDS011;39605;52.704;6.752;2023-05-06T12:20:00;11.00;;;9.95;;
53710;SDS011;39605;52.704;6.752;2023-05-06T12:22:26;11.07;;;9.98;;
53710;SDS011;39605;52.704;6.752;2023-05-06T12:24:53;11.23;;;10.23;;
53710;SDS011;39605;52.704;6.752;2023-05-06T12:27:31;12.27;;;10.98;;
53710;SDS011;39605;52.704;6.752;2023-05-06T12:29:57;17.25;;;12.13;;
53710;SDS011;39605;52.704;6.752;2023-05-06T12:32:24;12.00;;;11.00;;
53710;SDS011;39605;52.704;6.752;2023-05-06T12:34:51;12.50;;;11.43;;
53710;SDS011;39605;52.704;6.752;2023-05-06T12:37:26;11.05;;;10.18;;
53710;SDS011;39605;52.704;6.752;2023-05-06T12:39:53;11.57;;;10.88;;
53710;SDS011;39605;52.704;6.752;2023-05-06T12:42:20;10.65;;;9.88;;
53710;SDS011;39605;52.704;6.752;2023-05-06T12:44:46;11.18;;;10.27;;
53710;SDS011;39605;52.704;6.752;2023-05-06T12:47:19;11.98;;;10.98;;
53710;SDS011;39605;52.704;6.752;2023-05-06T12:49:55;10.60;;;9.80;;
53710;SDS011;39605;52.704;6.752;2023-05-06T12:52:23;12.30;;;11.40;;
53710;SDS011;39605;52.704;6.752;2023-05-06T12:54:49;13.18;;;12.27;;
53710;SDS011;39605;52.704;6.752;2023-05-06T12:57:16;12.68;;;11.68;;
53710;SDS011;39605;52.704;6.752;2023-05-06T12:59:43;15.07;;;14.07;;
53710;SDS011;39605;52.704;6.752;2023-05-06T13:02:09;17.25;;;15.93;;
53710;SDS011;39605;52.704;6.752;2023-05-06T13:04:36;16.10;;;14.60;;
53710;SDS011;39605;52.704;6.752;2023-05-06T13:07:02;15.07;;;13.88;;
53710;SDS011;39605;52.704;6.752;2023-05-06T13:09:28;14.73;;;13.73;;
53710;SDS011;39605;52.704;6.752;2023-05-06T13:11:54;13.93;;;12.80;;
53710;SDS011;39605;52.704;6.752;2023-05-06T13:14:20;15.38;;;14.18;;
53710;SDS011;39605;52.704;6.752;2023-05-06T13:16:48;12.95;;;12.02;;
53710;SDS011;39605;52.704;6.752;2023-05-06T13:19:14;12.05;;;10.95;;
53710;SDS011;39605;52.704;6.752;2023-05-06T13:21:40;9.40;;;8.50;;
53710;SDS011;39605;52.704;6.752;2023-05-06T13:24:07;10.40;;;9.40;;
53710;SDS011;39605;52.704;6.752;2023-05-06T13:26:33;10.73;;;9.73;;
53710;SDS011;39605;52.704;6.752;2023-05-06T13:29:00;10.88;;;10.02;;
53710;SDS011;39605;52.704;6.752;2023-05-06T13:31:26;11.85;;;10.95;;
53710;SDS011;39605;52.704;6.752;2023-05-06T13:33:53;10.77;;;9.98;;
53710;SDS011;39605;52.704;6.752;2023-05-06T13:36:20;12.13;;;11.23;;
53710;SDS011;39605;52.704;6.752;2023-05-06T13:38:46;11.50;;;10.60;;
53710;SDS011;39605;52.704;6.752;2023-05-06T13:41:12;11.27;;;10.57;;
53710;SDS011;39605;52.704;6.752;2023-05-06T13:43:38;10.65;;;9.75;;
53710;SDS011;39605;52.704;6.752;2023-05-06T13:46:04;9.02;;;8.43;;
53710;SDS011;39605;52.704;6.752;2023-05-06T13:48:30;8.75;;;8.15;;
53710;SDS011;39605;52.704;6.752;2023-05-06T13:50:56;8.50;;;7.97;;
53710;SDS011;39605;52.704;6.752;2023-05-06T13:53:22;10.40;;;9.70;;
53710;SDS011;39605;52.704;6.752;2023-05-06T13:55:48;9.55;;;8.88;;
53710;SDS011;39605;52.704;6.752;2023-05-06T13:58:14;11.38;;;10.48;;
53710;SDS011;39605;52.704;6.752;2023-05-06T14:00:41;14.25;;;13.05;;
53710;SDS011;39605;52.704;6.752;2023-05-06T14:03:07;19.10;;;17.40;;
53710;SDS011;39605;52.704;6.752;2023-05-06T14:05:33;21.58;;;19.67;;
53710;SDS011;39605;52.704;6.752;2023-05-06T14:07:59;18.85;;;17.20;;
53710;SDS011;39605;52.704;6.752;2023-05-06T14:10:25;17.70;;;16.20;;
53710;SDS011;39605;52.704;6.752;2023-05-06T14:12:52;17.02;;;15.63;;
53710;SDS011;39605;52.704;6.752;2023-05-06T14:15:18;16.45;;;15.13;;
53710;SDS011;39605;52.704;6.752;2023-05-06T14:17:47;14.60;;;13.40;;
53710;SDS011;39605;52.704;6.752;2023-05-06T14:20:13;12.55;;;11.48;;
53710;SDS011;39605;52.704;6.752;2023-05-06T14:22:40;13.32;;;12.40;;
53710;SDS011;39605;52.704;6.752;2023-05-06T14:25:06;10.73;;;9.82;;
53710;SDS011;39605;52.704;6.752;2023-05-06T14:27:33;8.20;;;7.57;;
53710;SDS011;39605;52.704;6.752;2023-05-06T14:29:59;7.50;;;6.90;;
53710;SDS011;39605;52.704;6.752;2023-05-06T14:32:26;6.30;;;5.90;;
53710;SDS011;39605;52.704;6.752;2023-05-06T14:34:52;5.30;;;4.97;;
53710;SDS011;39605;52.704;6.752;2023-05-06T14:37:18;4.68;;;4.38;;
53710;SDS011;39605;52.704;6.752;2023-05-06T14:39:44;4.00;;;3.65;;